createdAt,value
2022-09-12T00:00:01.914Z,54.0
2022-09-12T00:05:01.916Z,53.6
2022-09-12T00:10:01.776Z,54.6
2022-09-12T00:15:01.478Z,54.4
2022-09-12T00:20:01.832Z,53.7
2022-09-12T00:30:01.717Z,54.4
2022-09-12T00:35:01.670Z,54.8
2022-09-12T00:40:02.029Z,55.2
2022-09-12T00:50:02.531Z,55.8
2022-09-12T00:55:07.014Z,55.3
2022-09-12T01:00:01.479Z,55.4
2022-09-12T01:05:07.473Z,56.0
2022-09-12T01:40:02.232Z,57.8
2022-09-12T02:00:01.556Z,53.2
2022-09-12T02:05:01.448Z,54.2
2022-09-12T02:10:00.991Z,54.6
2022-09-12T02:15:01.187Z,54.3
2022-09-12T02:20:01.423Z,54.0
2022-09-12T02:25:01.316Z,54.5
2022-09-12T02:30:01.051Z,54.7
2022-09-12T02:35:01.446Z,54.8
2022-09-12T02:40:01.528Z,57.0
2022-09-12T02:50:01.111Z,59.3
2022-09-12T02:55:01.090Z,59.0
2022-09-12T03:00:01.181Z,57.5
2022-09-12T03:05:06.089Z,63.5
2022-09-12T03:10:01.066Z,63.6
2022-09-12T03:35:02.175Z,67.7
2022-09-12T03:40:02.456Z,63.5
2022-09-12T03:50:02.224Z,64.9
2022-09-12T03:55:03.649Z,63.4
2022-09-12T04:20:05.314Z,69.2
2022-09-12T04:50:02.085Z,69.0
2022-09-12T04:55:02.792Z,67.0
2022-09-12T05:00:07.734Z,66.9
2022-09-12T05:10:01.977Z,66.4
2022-09-12T05:15:01.731Z,66.0
2022-09-12T05:20:01.786Z,67.6
2022-09-12T05:25:01.919Z,68.0
2022-09-12T05:35:01.825Z,66.6
2022-09-12T05:40:02.834Z,66.8
2022-09-12T06:00:02.030Z,69.3
2022-09-12T06:10:02.051Z,66.7
2022-09-12T06:20:01.767Z,68.3
2022-09-12T06:40:02.714Z,72.9
2022-09-12T06:45:01.762Z,72.0
2022-09-12T06:50:02.024Z,70.0
2022-09-12T07:00:01.675Z,60.6
2022-09-12T07:05:01.795Z,55.9
2022-09-12T07:10:01.813Z,51.5
2022-09-12T07:15:01.714Z,51.5
2022-09-12T07:20:01.720Z,48.8
2022-09-12T07:25:01.728Z,46.9
2022-09-12T07:35:02.286Z,43.8
2022-09-12T07:45:01.691Z,38.4
2022-09-12T07:50:06.864Z,38.1
2022-09-12T08:00:01.535Z,36.6
2022-09-12T08:05:01.687Z,35.8
2022-09-12T08:10:02.775Z,35.2
2022-09-12T08:15:01.643Z,34.6
2022-09-12T08:25:06.864Z,34.4
2022-09-12T08:30:01.578Z,34.4
2022-09-12T08:35:01.725Z,34.4
2022-09-12T08:40:01.921Z,34.7
2022-09-12T08:50:01.616Z,36.1
2022-09-12T08:55:01.729Z,38.9
2022-09-12T09:00:03.103Z,41.2
2022-09-12T09:40:01.967Z,44.2
2022-09-12T09:45:01.901Z,43.5
2022-09-12T09:50:01.381Z,41.2
2022-09-12T09:55:01.558Z,44.2
2022-09-12T10:00:01.544Z,41.5
2022-09-12T10:40:04.348Z,28.0
2022-09-12T10:45:04.472Z,28.3
2022-09-12T10:55:01.817Z,28.9
2022-09-12T11:00:01.410Z,28.8
2022-09-12T11:05:01.476Z,28.2
2022-09-12T11:20:01.913Z,23.6
2022-09-12T11:40:01.498Z,26.0
2022-09-12T11:45:01.304Z,27.2
2022-09-12T11:50:06.059Z,27.5
2022-09-12T11:55:01.101Z,27.4
2022-09-12T12:00:01.154Z,27.2
2022-09-12T12:05:01.200Z,27.9
2022-09-12T12:10:00.972Z,27.6
2022-09-12T12:15:01.252Z,27.4
2022-09-12T12:25:01.273Z,27.5
2022-09-12T12:40:02.182Z,25.0
2022-09-12T13:00:01.269Z,27.0
2022-09-12T14:00:01.318Z,28.4
2022-09-12T14:05:01.195Z,26.6
2022-09-12T14:10:01.176Z,26.6
2022-09-12T14:15:01.245Z,26.7
2022-09-12T14:20:01.211Z,26.8
2022-09-12T14:25:01.150Z,26.2
2022-09-12T14:30:01.017Z,26.9
2022-09-12T14:35:01.345Z,26.8
2022-09-12T14:40:01.380Z,26.4
2022-09-12T14:45:01.266Z,26.2
2022-09-12T14:50:01.159Z,26.4
2022-09-12T14:55:01.232Z,25.8
2022-09-12T15:10:02.239Z,27.6
2022-09-12T15:15:01.948Z,27.3
2022-09-12T15:20:02.134Z,27.8
2022-09-12T15:25:02.083Z,27.6
2022-09-12T15:30:02.433Z,27.4
2022-09-12T15:35:01.881Z,27.1
2022-09-12T15:40:02.188Z,26.7
2022-09-12T15:45:03.285Z,26.5
2022-09-12T15:50:12.147Z,26.2
2022-09-12T15:55:01.954Z,26.2
2022-09-12T16:00:01.865Z,28.2
2022-09-12T16:05:07.142Z,28.6
2022-09-12T16:10:02.342Z,28.8
2022-09-12T16:15:01.889Z,29.0
2022-09-12T16:20:01.738Z,28.9
2022-09-12T16:25:01.888Z,26.9
2022-09-12T16:30:03.054Z,26.6
2022-09-12T16:35:02.005Z,26.6
2022-09-12T16:40:02.030Z,27.0
2022-09-12T16:45:01.745Z,27.1
2022-09-12T16:50:06.793Z,27.0
2022-09-12T16:55:02.057Z,27.1
2022-09-12T17:00:01.727Z,26.7
2022-09-12T17:05:01.792Z,26.4
2022-09-12T17:10:01.806Z,26.0
2022-09-12T17:15:01.735Z,26.2
2022-09-12T17:20:01.723Z,26.1
2022-09-12T17:25:01.790Z,26.5
2022-09-12T17:30:02.189Z,26.4
2022-09-12T17:40:01.984Z,26.0
2022-09-12T17:45:01.863Z,25.7
2022-09-12T17:55:02.403Z,27.6
2022-09-12T18:00:01.680Z,28.3
2022-09-12T18:05:01.835Z,28.8
2022-09-12T18:10:01.821Z,29.7
2022-09-12T18:15:01.964Z,30.2
2022-09-12T18:20:02.089Z,28.8
2022-09-12T18:25:01.788Z,29.2
2022-09-12T18:35:02.874Z,30.0
2022-09-12T18:40:01.958Z,31.2
2022-09-12T18:45:01.815Z,32.2
2022-09-12T18:50:01.744Z,32.6
2022-09-12T18:55:02.896Z,33.5
2022-09-12T19:00:10.572Z,33.3
2022-09-12T19:05:01.747Z,32.0
2022-09-12T19:10:03.265Z,30.9
2022-09-12T19:15:06.840Z,30.2
2022-09-12T19:20:01.710Z,29.5
2022-09-12T19:25:02.357Z,29.7
2022-09-12T19:30:01.898Z,30.4
2022-09-12T19:35:02.475Z,31.4
2022-09-12T19:40:01.878Z,32.3
2022-09-12T19:45:06.865Z,33.1
2022-09-12T19:50:01.770Z,35.4
2022-09-12T19:55:02.103Z,35.0
2022-09-12T20:00:01.869Z,35.0
2022-09-12T20:10:07.076Z,34.3
2022-09-12T20:15:02.537Z,32.5
2022-09-12T20:20:01.506Z,33.6
2022-09-12T20:25:01.648Z,33.9
2022-09-12T20:30:01.808Z,35.0
2022-09-12T20:35:01.556Z,38.5
2022-09-12T20:40:01.707Z,40.0
2022-09-12T20:45:01.550Z,40.8
2022-09-12T20:50:01.709Z,43.0
2022-09-12T20:55:01.563Z,41.6
2022-09-12T21:00:01.539Z,38.4
2022-09-12T21:05:01.701Z,38.2
2022-09-12T21:10:01.667Z,37.2
2022-09-12T21:15:01.728Z,35.5
2022-09-12T21:20:01.697Z,37.7
2022-09-12T21:25:02.207Z,38.4
2022-09-12T21:30:01.738Z,39.4
2022-09-12T21:35:01.565Z,41.1
2022-09-12T21:40:01.817Z,42.1
2022-09-12T21:45:02.710Z,40.2
2022-09-12T21:50:01.730Z,40.5
2022-09-12T21:55:01.750Z,39.0
2022-09-12T22:00:01.748Z,37.4
2022-09-12T22:05:02.015Z,36.4
2022-09-12T22:10:01.887Z,38.2
2022-09-12T22:20:01.635Z,37.7
2022-09-12T22:25:02.251Z,38.4
2022-09-12T22:30:01.749Z,40.0
2022-09-12T22:35:01.726Z,41.0
2022-09-12T22:40:01.897Z,42.5
2022-09-12T22:45:01.654Z,42.2
2022-09-12T22:50:01.635Z,41.4
2022-09-12T22:55:01.606Z,39.7
2022-09-12T23:00:01.457Z,37.7
2022-09-12T23:05:01.499Z,36.6
2022-09-12T23:10:01.716Z,37.2
2022-09-12T23:15:01.632Z,39.8
2022-09-12T23:20:01.553Z,39.1
2022-09-12T23:25:01.835Z,38.4
2022-09-12T23:35:01.596Z,35.0
2022-09-12T23:40:01.727Z,31.9
2022-09-12T23:45:01.444Z,31.8
2022-09-12T23:50:06.587Z,31.5
